Time;durP1;ratioP1;P1;durP2;ratioP2;P2;SDS_P1;SDS_P2;PMS_P1;PMS_P2;Temp;Humidity;BMP_temperature;BMP_pressure;BME280_temperature;BME280_humidity;BME280_pressure;Samples;Min_cycle;Max_cycle;Signal;HPM_P1;HPM_P2
2022/06/07 00:02:11;;;;;;;2.60;2.10;;;25.80;52.90;;;;;;5024874;28;20419;-88
2022/06/07 00:04:38;;;;;;;2.13;1.93;;;25.80;52.90;;;;;;5024860;28;20446;-89
2022/06/07 00:07:05;;;;;;;3.63;2.40;;;25.80;52.90;;;;;;5025794;28;20415;-88
2022/06/07 00:09:31;;;;;;;3.40;2.50;;;25.80;52.90;;;;;;5025629;28;20430;-88
2022/06/07 00:11:58;;;;;;;4.70;2.20;;;25.80;52.90;;;;;;5026399;28;20423;-88
2022/06/07 00:14:27;;;;;;;2.50;2.30;;;25.80;52.80;;;;;;5026569;28;20591;-89
2022/06/07 00:16:56;;;;;;;2.57;2.37;;;25.80;52.90;;;;;;5025897;28;20975;-88
2022/06/07 00:19:22;;;;;;;2.30;2.10;;;25.80;52.90;;;;;;5023831;28;20457;-89
2022/06/07 00:21:48;;;;;;;2.43;1.70;;;25.80;52.80;;;;;;5039597;28;20495;-88
2022/06/07 00:24:14;;;;;;;2.80;2.60;;;25.80;52.80;;;;;;5025399;28;20434;-89
2022/06/07 00:26:41;;;;;;;2.10;1.90;;;25.80;52.80;;;;;;5025238;28;20183;-87
2022/06/07 00:29:07;;;;;;;2.27;2.07;;;25.80;52.80;;;;;;5019632;28;20186;-89
2022/06/07 00:31:34;;;;;;;2.30;2.10;;;25.80;52.80;;;;;;5025936;28;20500;-89
2022/06/07 00:34:00;;;;;;;3.00;2.00;;;25.70;52.70;;;;;;5010746;28;20431;-88
2022/06/07 00:36:27;;;;;;;3.27;2.00;;;25.70;52.80;;;;;;5022290;28;20506;-88
2022/06/07 00:38:52;;;;;;;2.30;2.10;;;25.80;52.80;;;;;;5041312;28;20440;-88
2022/06/07 00:41:18;;;;;;;2.20;2.03;;;25.80;52.80;;;;;;5025920;28;20458;-88
2022/06/07 00:44:30;;;;;;;2.67;2.47;;;25.80;52.80;;;;;;5026061;28;20267;-88
2022/06/07 00:47:01;;;;;;;2.37;2.17;;;25.80;52.80;;;;;;5016890;28;20189;-88
2022/06/07 00:49:34;;;;;;;2.50;2.30;;;25.70;52.70;;;;;;5025825;28;20526;-88
2022/06/07 00:52:00;;;;;;;2.40;2.20;;;25.70;52.70;;;;;;5027116;28;20395;-88
2022/06/07 00:54:30;;;;;;;2.40;2.17;;;25.70;52.70;;;;;;5058904;28;20431;-88
2022/06/07 00:56:56;;;;;;;2.17;1.80;;;25.70;52.70;;;;;;5025319;28;20426;-88
2022/06/07 00:59:23;;;;;;;2.70;2.47;;;25.70;52.70;;;;;;5027250;28;20419;-88
2022/06/07 01:01:50;;;;;;;4.17;2.40;;;25.70;52.70;;;;;;5026236;28;20798;-88
2022/06/07 01:04:17;;;;;;;3.07;2.40;;;25.70;52.70;;;;;;5026291;28;20411;-88
2022/06/07 01:12:11;;;;;;;2.53;2.30;;;25.70;52.70;;;;;;5026282;28;20394;-88
2022/06/07 01:14:37;;;;;;;2.50;2.30;;;25.70;52.70;;;;;;5026640;28;20439;-89
2022/06/07 01:17:04;;;;;;;2.50;2.30;;;25.70;52.70;;;;;;5027923;28;20207;-88
2022/06/07 01:19:30;;;;;;;2.20;2.00;;;25.70;52.70;;;;;;5029375;28;20461;-87
2022/06/07 01:21:56;;;;;;;2.77;2.57;;;25.70;52.70;;;;;;5029184;28;20443;-88
2022/06/07 01:24:22;;;;;;;4.10;2.37;;;25.70;52.70;;;;;;5029978;28;20232;-88
2022/06/07 01:26:47;;;;;;;2.53;2.33;;;25.70;52.70;;;;;;5029105;28;20486;-88
2022/06/07 01:29:14;;;;;;;2.60;2.40;;;25.70;52.70;;;;;;5029529;28;20183;-88
2022/06/07 01:31:43;;;;;;;2.50;2.30;;;25.70;52.70;;;;;;5028368;28;20176;-88
2022/06/07 01:34:10;;;;;;;2.63;2.43;;;25.70;52.60;;;;;;5028488;28;20411;-88
2022/06/07 01:36:36;;;;;;;2.67;2.23;;;25.70;52.70;;;;;;5029029;28;20419;-87
2022/06/07 01:41:57;;;;;;;2.40;2.20;;;25.70;52.60;;;;;;5030257;28;20399;-88
2022/06/07 01:44:25;;;;;;;3.17;2.27;;;25.70;52.60;;;;;;5030004;28;20388;-87
2022/06/07 01:46:52;;;;;;;3.10;2.47;;;25.70;52.70;;;;;;5061563;28;20414;-89
2022/06/07 01:49:19;;;;;;;2.50;2.30;;;25.70;52.60;;;;;;5029760;28;20438;-87
2022/06/07 01:51:45;;;;;;;2.70;2.50;;;25.70;52.60;;;;;;5028010;28;20404;-89
2022/06/07 01:54:13;;;;;;;3.20;2.87;;;25.70;52.60;;;;;;5027786;28;20446;-88
2022/06/07 01:56:39;;;;;;;2.40;2.20;;;25.60;52.50;;;;;;5030180;28;20469;-88
2022/06/07 01:59:05;;;;;;;2.50;2.30;;;25.70;52.60;;;;;;5028218;28;20777;-87
2022/06/07 02:01:32;;;;;;;5.07;2.50;;;25.70;52.60;;;;;;5029586;28;20404;-87
2022/06/07 02:03:57;;;;;;;2.43;2.23;;;25.70;52.60;;;;;;5029238;28;20494;-88
2022/06/07 02:06:23;;;;;;;2.67;2.27;;;25.70;52.60;;;;;;5029878;28;20415;-88
2022/06/07 02:08:49;;;;;;;2.37;2.17;;;25.60;52.50;;;;;;5029643;28;20172;-87
2022/06/07 02:11:19;;;;;;;2.30;2.10;;;25.70;52.60;;;;;;5030768;28;20176;-88
2022/06/07 02:13:46;;;;;;;2.70;2.50;;;25.70;52.60;;;;;;5029534;28;20175;-88
2022/06/07 02:16:12;;;;;;;2.50;2.30;;;25.60;52.50;;;;;;5031649;28;20404;-88
2022/06/07 02:18:39;;;;;;;2.40;2.20;;;25.70;52.60;;;;;;5031410;28;20916;-87
2022/06/07 02:21:06;;;;;;;2.77;2.57;;;25.70;52.60;;;;;;5029299;28;20455;-88
2022/06/07 02:23:34;;;;;;;3.03;2.33;;;25.70;53.10;;;;;;5029858;28;20423;-88
2022/06/07 02:26:04;;;;;;;2.90;2.70;;;25.70;52.50;;;;;;5029684;28;20422;-87
2022/06/07 02:28:34;;;;;;;3.30;2.50;;;25.70;52.60;;;;;;5029784;28;20416;-88
2022/06/07 02:31:02;;;;;;;2.53;2.30;;;25.60;52.50;;;;;;5029922;28;20410;-87
2022/06/07 02:33:28;;;;;;;2.43;2.23;;;25.70;52.50;;;;;;5030220;28;20428;-87
2022/06/07 02:35:54;;;;;;;2.60;2.40;;;25.60;52.50;;;;;;5029114;28;20427;-87
2022/06/07 02:38:21;;;;;;;2.20;2.00;;;25.60;52.50;;;;;;5030146;28;20415;-87
2022/06/07 02:40:49;;;;;;;2.70;2.50;;;25.60;52.50;;;;;;5029633;28;20467;-87
2022/06/07 02:43:15;;;;;;;3.10;2.67;;;25.60;52.50;;;;;;5029541;28;20419;-87
2022/06/07 02:45:41;;;;;;;2.73;2.53;;;25.60;52.50;;;;;;5030600;28;20407;-88
2022/06/07 02:48:08;;;;;;;2.53;2.33;;;25.60;52.50;;;;;;5021712;28;20478;-88
2022/06/07 02:50:34;;;;;;;3.47;2.83;;;25.60;52.50;;;;;;5010384;28;20280;-88
2022/06/07 02:53:00;;;;;;;3.00;2.80;;;25.60;52.50;;;;;;5010841;28;20426;-88
2022/06/07 02:55:26;;;;;;;2.53;2.33;;;25.60;52.50;;;;;;5010816;28;20189;-88
2022/06/07 02:57:52;;;;;;;2.63;2.00;;;25.60;52.50;;;;;;5009701;28;20185;-88
2022/06/07 03:00:18;;;;;;;2.60;2.40;;;25.60;52.50;;;;;;5010472;28;20215;-88
2022/06/07 03:02:44;;;;;;;2.60;2.40;;;25.60;52.50;;;;;;5010505;28;20440;-88
2022/06/07 03:05:11;;;;;;;3.30;2.50;;;25.60;52.50;;;;;;5022633;28;20420;-88
2022/06/07 03:07:38;;;;;;;2.67;2.47;;;25.60;52.40;;;;;;5038633;28;20176;-88
2022/06/07 03:10:05;;;;;;;2.73;2.53;;;25.60;52.40;;;;;;5030191;28;20411;-88
2022/06/07 03:12:32;;;;;;;2.30;2.10;;;25.60;52.50;;;;;;5026189;28;20455;-87
2022/06/07 03:14:58;;;;;;;7.30;2.53;;;25.60;52.40;;;;;;5025843;28;20422;-88
2022/06/07 03:17:24;;;;;;;2.57;2.20;;;25.60;52.50;;;;;;5028058;28;20407;-88
2022/06/07 03:19:51;;;;;;;2.53;2.33;;;25.60;52.40;;;;;;5021809;28;20526;-87
2022/06/07 03:22:18;;;;;;;2.67;2.17;;;25.60;52.50;;;;;;5023999;28;20527;-87
2022/06/07 03:24:44;;;;;;;3.17;2.87;;;25.60;52.50;;;;;;5028325;28;20481;-87
2022/06/07 03:27:10;;;;;;;2.87;2.67;;;25.60;52.50;;;;;;5051826;28;20427;-87
2022/06/07 03:29:37;;;;;;;2.70;2.50;;;25.60;52.40;;;;;;5052762;28;20267;-88
2022/06/07 03:32:03;;;;;;;2.30;2.10;;;25.60;52.40;;;;;;5026244;28;20427;-87
2022/06/07 03:34:29;;;;;;;2.67;2.47;;;25.60;52.40;;;;;;5049001;28;20416;-87
2022/06/07 03:40:42;;;;;;;2.50;2.30;;;25.60;52.40;;;;;;5028766;28;20231;-88
2022/06/07 03:43:07;;;;;;;4.07;2.97;;;25.60;52.50;;;;;;5029573;28;20415;-88
2022/06/07 03:45:33;;;;;;;2.83;2.63;;;25.60;52.50;;;;;;5025097;28;20411;-88
2022/06/07 03:47:59;;;;;;;2.30;2.10;;;25.60;52.50;;;;;;5027204;28;20415;-88
2022/06/07 03:50:25;;;;;;;2.40;2.20;;;25.60;52.50;;;;;;5020583;28;20192;-88
2022/06/07 03:52:51;;;;;;;2.63;2.43;;;25.60;52.50;;;;;;5053843;28;20243;-88
2022/06/07 03:55:17;;;;;;;2.63;2.43;;;25.60;52.50;;;;;;5017057;28;20424;-88
2022/06/07 03:57:43;;;;;;;2.60;2.37;;;25.60;52.50;;;;;;5021050;28;20417;-89
2022/06/07 04:00:10;;;;;;;2.60;2.40;;;25.50;52.40;;;;;;5026842;28;20212;-89
2022/06/07 04:02:36;;;;;;;2.40;2.20;;;25.60;52.50;;;;;;5039530;28;20217;-88
2022/06/07 04:05:03;;;;;;;2.30;2.10;;;25.60;52.50;;;;;;5025201;28;21016;-88
2022/06/07 04:10:13;;;;;;;2.57;2.37;;;25.60;52.50;;;;;;5024659;28;20931;-89
2022/06/07 04:12:38;;;;;;;2.40;2.20;;;25.60;52.50;;;;;;5027521;28;20419;-89
2022/06/07 04:15:05;;;;;;;3.10;2.63;;;25.60;52.50;;;;;;5055026;28;20187;-88
2022/06/07 04:17:31;;;;;;;3.20;2.60;;;25.60;52.50;;;;;;5028505;28;20176;-88
2022/06/07 04:19:56;;;;;;;3.17;2.40;;;25.60;52.50;;;;;;5023857;28;20485;-88
2022/06/07 04:22:22;;;;;;;2.47;2.27;;;25.60;52.50;;;;;;5020365;28;20542;-89
2022/06/07 04:24:48;;;;;;;2.57;2.37;;;25.60;52.50;;;;;;5054818;28;20195;-89
2022/06/07 04:27:14;;;;;;;2.80;2.60;;;25.60;52.50;;;;;;5027704;28;20181;-88
2022/06/07 04:29:40;;;;;;;2.90;2.50;;;25.60;52.50;;;;;;5027905;28;20194;-88
2022/06/07 04:32:07;;;;;;;2.37;2.17;;;25.60;52.50;;;;;;5044567;28;20288;-88
2022/06/07 04:34:33;;;;;;;2.90;2.70;;;25.60;52.50;;;;;;5027819;28;20423;-88
2022/06/07 04:37:02;;;;;;;2.90;2.60;;;25.60;52.50;;;;;;5055339;28;20446;-88
2022/06/07 04:39:28;;;;;;;2.50;2.13;;;25.60;52.50;;;;;;5027648;28;20194;-89
2022/06/07 04:41:53;;;;;;;3.27;2.90;;;25.50;52.40;;;;;;5028668;28;20455;-89
2022/06/07 04:44:19;;;;;;;2.47;2.27;;;25.50;52.50;;;;;;5028352;28;20203;-88
2022/06/07 04:46:45;;;;;;;2.67;2.47;;;25.60;52.50;;;;;;5029093;28;20188;-88
2022/06/07 04:49:13;;;;;;;2.50;2.30;;;25.60;52.50;;;;;;5027687;28;20447;-88
2022/06/07 04:51:39;;;;;;;2.87;2.60;;;25.50;52.50;;;;;;5046731;28;20190;-88
2022/06/07 04:54:05;;;;;;;2.43;2.23;;;25.50;52.50;;;;;;5031467;28;20423;-88
2022/06/07 04:56:34;;;;;;;2.77;2.57;;;25.60;52.50;;;;;;5031178;28;20184;-88
2022/06/07 04:59:01;;;;;;;2.83;2.50;;;25.60;52.50;;;;;;5063744;28;20514;-88
2022/06/07 05:01:28;;;;;;;2.77;2.57;;;25.50;52.50;;;;;;5032491;28;20458;-88
2022/06/07 05:03:55;;;;;;;3.00;2.80;;;25.50;52.50;;;;;;5030774;28;20454;-88
2022/06/07 05:06:27;;;;;;;3.17;2.97;;;25.60;52.50;;;;;;5023358;28;20424;-88
2022/06/07 05:08:59;;;;;;;2.50;2.30;;;25.50;52.40;;;;;;5028861;28;20426;-89
2022/06/07 05:11:26;;;;;;;2.57;2.37;;;25.60;52.50;;;;;;5036324;28;20416;-87
2022/06/07 05:13:54;;;;;;;2.37;2.17;;;25.50;52.40;;;;;;5031659;28;20509;-87
2022/06/07 05:16:20;;;;;;;2.50;2.30;;;25.50;52.40;;;;;;5030181;28;20412;-88
2022/06/07 05:18:50;;;;;;;2.10;2.00;;;25.60;52.50;;;;;;5036367;28;20423;-88
2022/06/07 05:21:16;;;;;;;4.17;2.57;;;25.50;52.40;;;;;;5027239;28;20455;-87
2022/06/07 05:23:43;;;;;;;2.60;2.20;;;25.50;52.40;;;;;;5027465;28;20407;-88
2022/06/07 05:26:18;;;;;;;2.83;2.63;;;25.50;52.40;;;;;;5031657;28;20770;-88
2022/06/07 05:28:44;;;;;;;2.50;2.30;;;25.50;52.40;;;;;;5032877;28;20415;-88
2022/06/07 05:31:10;;;;;;;3.13;2.60;;;25.50;52.40;;;;;;5046018;28;21003;-87
2022/06/07 05:33:37;;;;;;;2.57;2.37;;;25.50;52.40;;;;;;5032544;28;20192;-87
2022/06/07 05:36:04;;;;;;;2.43;2.23;;;25.50;53.00;;;;;;5030096;28;20423;-87
2022/06/07 05:38:30;;;;;;;2.37;2.17;;;25.50;52.40;;;;;;5025184;28;20422;-89
2022/06/07 05:40:56;;;;;;;2.40;2.20;;;25.50;52.40;;;;;;5030348;28;20469;-89
2022/06/07 05:43:22;;;;;;;2.50;2.30;;;25.50;52.40;;;;;;5024198;28;20419;-89
2022/06/07 05:45:53;;;;;;;2.30;2.10;;;25.50;52.40;;;;;;5031056;28;20407;-89
2022/06/07 05:48:20;;;;;;;2.40;2.20;;;25.50;52.40;;;;;;5031740;28;20419;-88
2022/06/07 05:50:50;;;;;;;2.33;2.13;;;25.50;52.40;;;;;;5032157;28;20443;-89
2022/06/07 05:53:20;;;;;;;4.73;2.40;;;25.50;52.40;;;;;;5031457;28;20403;-89
2022/06/07 05:55:47;;;;;;;2.53;2.33;;;25.50;52.60;;;;;;5029997;28;20427;-87
2022/06/07 05:58:13;;;;;;;2.40;2.00;;;25.50;52.40;;;;;;5029520;28;20932;-87
2022/06/07 06:00:39;;;;;;;2.57;2.27;;;25.60;52.50;;;;;;5029891;28;20482;-88
2022/06/07 06:03:10;;;;;;;2.60;2.13;;;25.50;52.40;;;;;;5029664;28;20482;-88
2022/06/07 06:05:48;;;;;;;1.97;1.80;;;25.50;52.40;;;;;;5042997;28;20420;-88
2022/06/07 06:11:12;;;;;;;2.63;2.30;;;25.50;52.40;;;;;;5033949;28;20443;-88
2022/06/07 06:13:38;;;;;;;2.30;2.10;;;25.50;52.40;;;;;;5032269;28;20445;-87
2022/06/07 06:16:10;;;;;;;2.20;2.00;;;25.50;52.40;;;;;;5033492;28;20455;-88
2022/06/07 06:18:39;;;;;;;2.40;2.20;;;25.50;52.40;;;;;;5039696;28;20193;-88
2022/06/07 06:21:06;;;;;;;1.97;1.77;;;25.50;52.40;;;;;;5032610;28;20469;-88
2022/06/07 06:23:33;;;;;;;2.43;2.23;;;25.50;52.40;;;;;;5024202;28;20453;-89
2022/06/07 06:25:59;;;;;;;1.87;1.77;;;25.50;52.50;;;;;;5042601;28;20422;-89
2022/06/07 06:28:26;;;;;;;3.13;2.30;;;25.50;52.50;;;;;;5043252;28;20424;-90
2022/06/07 06:30:53;;;;;;;2.20;2.00;;;25.50;52.40;;;;;;5027225;28;20477;-89
2022/06/07 06:33:19;;;;;;;2.63;2.43;;;25.50;52.50;;;;;;5023748;28;20439;-89
2022/06/07 06:35:52;;;;;;;3.60;2.20;;;25.50;52.50;;;;;;5027628;28;20446;-89
2022/06/07 06:38:20;;;;;;;2.40;2.20;;;25.60;52.50;;;;;;5023957;28;20412;-89
2022/06/07 06:40:47;;;;;;;2.97;2.20;;;25.50;52.50;;;;;;5025116;28;20469;-89
2022/06/07 06:43:14;;;;;;;5.43;3.17;;;25.60;52.60;;;;;;5028460;28;20415;-89
2022/06/07 06:45:44;;;;;;;2.17;1.97;;;25.50;52.50;;;;;;5033987;28;20435;-89
2022/06/07 06:48:12;;;;;;;2.20;2.00;;;25.60;52.60;;;;;;5028680;28;20925;-89
2022/06/07 06:50:38;;;;;;;3.07;1.90;;;25.60;52.60;;;;;;5015963;28;20459;-89
2022/06/07 06:53:08;;;;;;;2.40;2.20;;;25.60;52.60;;;;;;5031127;28;20435;-89
2022/06/07 06:55:34;;;;;;;2.03;1.90;;;25.60;52.60;;;;;;5034371;28;20493;-89
2022/06/07 06:58:00;;;;;;;2.20;2.00;;;25.60;52.60;;;;;;5028351;28;20849;-89
2022/06/07 07:00:26;;;;;;;2.43;2.17;;;25.60;52.60;;;;;;5025157;28;20456;-89
2022/06/07 07:02:53;;;;;;;2.97;2.20;;;25.60;52.60;;;;;;5030142;28;20537;-89
2022/06/07 07:05:22;;;;;;;2.73;2.00;;;25.60;52.60;;;;;;5028052;28;20784;-89
2022/06/07 07:07:53;;;;;;;2.40;2.20;;;25.60;52.60;;;;;;5062111;28;20483;-88
2022/06/07 07:10:19;;;;;;;2.90;2.23;;;25.60;52.60;;;;;;5021230;28;20423;-89
2022/06/07 07:12:47;;;;;;;2.93;2.00;;;25.60;52.60;;;;;;5028583;28;20438;-89
2022/06/07 07:15:19;;;;;;;2.37;2.17;;;25.60;52.60;;;;;;5021811;28;20424;-89
2022/06/07 07:17:47;;;;;;;1.93;1.80;;;25.60;52.60;;;;;;5051508;28;20439;-88
2022/06/07 07:20:13;;;;;;;2.00;1.80;;;25.60;52.60;;;;;;5027385;28;20463;-89
2022/06/07 07:22:38;;;;;;;2.13;1.90;;;25.60;52.60;;;;;;5035027;28;20485;-88
2022/06/07 07:25:06;;;;;;;2.30;2.10;;;25.60;52.60;;;;;;5034113;28;20506;-89
2022/06/07 07:27:32;;;;;;;2.43;2.23;;;25.60;52.70;;;;;;5033130;28;20188;-89
2022/06/07 07:29:59;;;;;;;3.50;2.50;;;25.60;52.70;;;;;;5025659;28;20518;-89
2022/06/07 07:32:27;;;;;;;2.10;1.90;;;25.60;52.70;;;;;;5025213;28;20256;-89
2022/06/07 07:34:53;;;;;;;2.00;1.80;;;25.60;52.70;;;;;;5023736;28;20415;-88
2022/06/07 07:37:19;;;;;;;1.97;1.70;;;25.60;52.70;;;;;;5023038;28;20439;-88
2022/06/07 07:39:45;;;;;;;2.00;1.80;;;25.60;52.70;;;;;;5021985;28;20478;-89
2022/06/07 07:42:11;;;;;;;2.00;1.80;;;25.60;52.70;;;;;;5052866;28;20450;-88
2022/06/07 07:44:38;;;;;;;2.00;1.80;;;25.60;52.70;;;;;;5021225;28;20278;-88
2022/06/07 07:47:04;;;;;;;2.10;1.93;;;25.60;52.70;;;;;;5024285;28;20185;-89
2022/06/07 07:49:32;;;;;;;2.40;2.00;;;25.60;52.70;;;;;;5022564;28;20503;-89
2022/06/07 07:51:58;;;;;;;2.80;1.50;;;25.70;52.70;;;;;;5021774;28;20434;-89
2022/06/07 07:54:27;;;;;;;1.97;1.77;;;25.70;52.70;;;;;;5021085;28;20417;-88
2022/06/07 07:56:54;;;;;;;2.20;2.00;;;25.60;52.70;;;;;;5055967;28;20499;-88
2022/06/07 07:59:21;;;;;;;2.47;1.90;;;25.70;52.70;;;;;;5020324;28;20504;-87
2022/06/07 08:01:49;;;;;;;2.37;1.80;;;25.70;52.70;;;;;;5026541;28;20428;-88
2022/06/07 08:04:16;;;;;;;2.30;2.10;;;25.70;52.70;;;;;;5023629;28;20419;-88
2022/06/07 08:06:42;;;;;;;1.80;1.70;;;25.70;52.70;;;;;;5042666;28;20422;-88
2022/06/07 08:09:09;;;;;;;2.23;1.93;;;25.70;52.70;;;;;;5029705;28;20415;-88
2022/06/07 08:11:37;;;;;;;2.20;2.00;;;25.70;52.70;;;;;;5028614;28;20168;-88
2022/06/07 08:14:06;;;;;;;1.83;1.50;;;25.70;52.80;;;;;;5028484;28;20446;-88
2022/06/07 08:16:32;;;;;;;2.57;2.10;;;25.70;52.80;;;;;;5024205;28;20495;-88
2022/06/07 08:18:58;;;;;;;2.70;1.87;;;25.70;52.80;;;;;;5027844;28;20422;-88
2022/06/07 08:21:27;;;;;;;1.67;1.50;;;25.70;52.80;;;;;;5027990;28;20546;-89
2022/06/07 08:23:54;;;;;;;2.20;2.00;;;25.70;52.90;;;;;;5017474;28;20458;-90
2022/06/07 08:26:22;;;;;;;2.90;1.87;;;25.70;52.90;;;;;;5030467;28;20426;-90
2022/06/07 08:28:50;;;;;;;2.10;1.87;;;25.70;52.90;;;;;;5033038;28;20426;-90
2022/06/07 08:31:20;;;;;;;1.80;1.70;;;25.70;52.90;;;;;;5033918;28;20435;-89
2022/06/07 08:39:16;;;;;;;2.20;2.00;;;25.80;53.00;;;;;;5026560;28;20435;-90
2022/06/07 08:48:26;;;;;;;2.23;2.00;;;25.80;53.00;;;;;;4972960;28;20382;-90
2022/06/07 08:51:13;;;;;;;2.00;1.80;;;25.80;53.00;;;;;;4989730;28;20441;-91
2022/06/07 08:53:44;;;;;;;3.67;1.77;;;25.80;53.00;;;;;;4988765;28;20840;-90
2022/06/07 08:56:22;;;;;;;1.70;1.60;;;25.80;53.00;;;;;;4972540;28;20493;-90
2022/06/07 08:58:51;;;;;;;1.80;1.70;;;25.80;53.00;;;;;;4972444;29;20742;-89
2022/06/07 09:01:32;;;;;;;3.20;2.50;;;25.80;53.00;;;;;;4956412;29;20972;-91
2022/06/07 09:04:24;;;;;;;1.80;1.70;;;25.80;53.00;;;;;;4990411;28;20414;-89
2022/06/07 09:06:55;;;;;;;1.73;1.63;;;25.80;52.90;;;;;;4989429;28;20547;-90
2022/06/07 09:12:09;;;;;;;1.90;1.40;;;25.80;52.90;;;;;;4974365;29;20414;-89
2022/06/07 09:12:17;;;;;;;2.20;1.80;;;25.90;53.00;;;;;;4973736;29;20402;-89
2022/06/07 09:15:03;;;;;;;1.73;1.63;;;25.80;52.90;;;;;;4989930;28;20445;-91
2022/06/07 09:17:41;;;;;;;1.53;1.43;;;25.80;52.90;;;;;;4974387;28;20398;-91
2022/06/07 09:20:15;;;;;;;1.67;1.57;;;25.90;52.90;;;;;;4957928;28;20461;-91
2022/06/07 09:22:51;;;;;;;2.80;1.70;;;25.90;52.90;;;;;;5010665;28;20488;-91
2022/06/07 09:25:28;;;;;;;2.07;1.60;;;25.90;52.90;;;;;;5028835;28;20869;-91
2022/06/07 09:27:57;;;;;;;2.27;1.60;;;25.90;52.90;;;;;;5012225;28;20412;-91
2022/06/07 09:30:44;;;;;;;2.00;1.80;;;25.90;52.90;;;;;;5013328;28;20474;-91
2022/06/07 09:33:34;;;;;;;2.17;1.80;;;25.90;52.90;;;;;;5011824;28;20482;-89
2022/06/07 09:36:29;;;;;;;1.90;1.80;;;25.90;52.90;;;;;;5014838;28;20420;-89
2022/06/07 09:39:06;;;;;;;2.13;1.60;;;25.90;52.90;;;;;;5026486;28;20427;-89
2022/06/07 09:41:40;;;;;;;1.77;1.67;;;25.90;52.90;;;;;;5011478;28;20451;-89
2022/06/07 09:44:30;;;;;;;2.03;1.53;;;25.90;53.00;;;;;;5028448;28;20432;-89
2022/06/07 09:47:10;;;;;;;1.87;1.53;;;25.90;52.90;;;;;;5028526;28;20413;-91
2022/06/07 09:49:38;;;;;;;1.60;1.40;;;25.90;53.00;;;;;;5028493;28;20435;-91
2022/06/07 09:52:31;;;;;;;2.73;1.80;;;25.90;52.90;;;;;;5029966;28;20442;-91
2022/06/07 09:55:20;;;;;;;2.80;1.93;;;25.90;52.90;;;;;;5030330;28;20403;-91
2022/06/07 09:58:22;;;;;;;3.13;2.20;;;25.90;52.90;;;;;;5023958;28;20431;-91
2022/06/07 10:01:07;;;;;;;2.50;1.80;;;26.00;53.00;;;;;;5029039;28;20485;-91
2022/06/07 10:03:48;;;;;;;5.90;2.13;;;26.00;53.00;;;;;;5028261;28;20753;-91
2022/06/07 10:06:32;;;;;;;3.30;1.50;;;25.90;53.00;;;;;;5028913;28;20881;-91
2022/06/07 10:09:17;;;;;;;2.73;1.80;;;26.00;53.00;;;;;;5027831;28;20882;-90
2022/06/07 10:12:04;;;;;;;3.53;1.70;;;26.00;53.00;;;;;;5045072;28;20414;-91
2022/06/07 10:14:59;;;;;;;4.50;2.10;;;26.00;53.00;;;;;;5044599;28;20427;-91
2022/06/07 10:17:43;;;;;;;3.67;1.93;;;25.90;52.90;;;;;;5028694;28;20404;-92
2022/06/07 10:20:22;;;;;;;1.60;1.50;;;26.00;53.60;;;;;;5028601;28;20471;-91
2022/06/07 10:22:51;;;;;;;3.43;1.90;;;25.90;53.00;;;;;;5028240;28;20477;-90
2022/06/07 10:25:35;;;;;;;2.30;1.60;;;26.00;53.00;;;;;;5043953;28;20428;-91
2022/06/07 10:28:27;;;;;;;2.60;1.80;;;26.00;53.10;;;;;;5027973;28;20446;-91
2022/06/07 10:31:06;;;;;;;3.07;2.00;;;26.00;53.00;;;;;;5009930;28;20424;-91
2022/06/07 10:33:58;;;;;;;2.23;1.40;;;26.00;53.10;;;;;;5027664;28;20419;-90
2022/06/07 10:36:40;;;;;;;4.03;2.10;;;26.00;53.00;;;;;;5027710;28;20498;-91
2022/06/07 10:39:30;;;;;;;2.93;1.73;;;26.00;53.00;;;;;;5028374;28;20894;-90
2022/06/07 10:42:16;;;;;;;1.77;1.53;;;26.00;53.10;;;;;;5028835;28;20809;-90
2022/06/07 10:44:48;;;;;;;3.90;1.50;;;26.00;53.10;;;;;;5044455;28;20419;-90
2022/06/07 10:47:37;;;;;;;2.80;1.50;;;26.00;53.10;;;;;;5029086;28;20415;-90
2022/06/07 10:50:25;;;;;;;3.43;2.10;;;26.10;53.10;;;;;;5028596;28;20816;-90
2022/06/07 10:53:05;;;;;;;2.57;1.70;;;26.10;53.10;;;;;;5027721;28;20427;-90
2022/06/07 10:55:45;;;;;;;2.83;1.77;;;26.00;53.10;;;;;;5029057;28;20391;-91
2022/06/07 10:58:27;;;;;;;6.07;1.77;;;26.00;53.10;;;;;;5029026;28;20470;-90
2022/06/07 11:01:02;;;;;;;3.73;1.43;;;26.10;53.10;;;;;;5026725;28;21035;-89
2022/06/07 11:03:52;;;;;;;2.03;1.60;;;26.10;53.10;;;;;;5047751;28;20427;-87
2022/06/07 11:09:49;;;;;;;1.80;1.50;;;26.00;53.10;;;;;;4991426;28;20459;-87
2022/06/07 11:12:19;;;;;;;1.93;1.63;;;26.10;53.20;;;;;;4990283;28;20428;-88
2022/06/07 11:15:02;;;;;;;3.00;1.80;;;26.00;53.10;;;;;;4974290;28;20456;-88
2022/06/07 11:17:45;;;;;;;2.07;1.60;;;26.10;53.10;;;;;;4974457;28;20413;-87
2022/06/07 11:20:24;;;;;;;1.77;1.63;;;26.10;53.10;;;;;;4974916;28;20464;-87
2022/06/07 11:23:11;;;;;;;2.10;1.50;;;26.10;53.10;;;;;;4975197;28;20413;-87
2022/06/07 11:25:41;;;;;;;1.73;1.63;;;26.10;53.10;;;;;;4991107;28;20412;-87
2022/06/07 11:28:19;;;;;;;1.70;1.50;;;26.10;53.10;;;;;;4991703;28;20405;-87
2022/06/07 11:30:48;;;;;;;1.90;1.70;;;26.00;53.10;;;;;;4974862;28;20432;-87
2022/06/07 11:33:38;;;;;;;2.30;1.70;;;26.10;53.10;;;;;;4974372;28;20477;-87
2022/06/07 11:36:04;;;;;;;1.80;1.53;;;26.10;53.10;;;;;;4974321;28;20548;-87
2022/06/07 11:38:32;;;;;;;1.57;1.47;;;26.10;53.10;;;;;;4990613;28;20440;-87
2022/06/07 11:41:41;;;;;;;1.73;1.50;;;26.10;53.10;;;;;;4990678;28;20223;-87
2022/06/07 11:44:10;;;;;;;2.03;1.40;;;26.10;53.10;;;;;;4974356;28;20424;-87
2022/06/07 11:46:35;;;;;;;3.00;1.77;;;26.10;53.20;;;;;;5013539;28;20488;-87
2022/06/07 11:49:24;;;;;;;5.13;2.70;;;26.10;53.10;;;;;;5063413;28;20439;-87
2022/06/07 11:52:00;;;;;;;4.00;2.60;;;26.10;53.30;;;;;;5030262;28;20192;-87
2022/06/07 11:54:44;;;;;;;3.57;2.50;;;26.10;53.20;;;;;;5047371;28;20414;-87
2022/06/07 11:57:27;;;;;;;8.90;4.87;;;26.10;53.20;;;;;;5047296;28;20494;-87
2022/06/07 11:59:56;;;;;;;7.67;2.90;;;26.10;53.20;;;;;;5018451;28;20452;-87
2022/06/07 12:02:27;;;;;;;9.87;3.60;;;26.00;53.10;;;;;;5020677;28;20408;-87
2022/06/07 12:04:59;;;;;;;7.27;4.50;;;26.10;53.20;;;;;;5023883;28;20415;-88
2022/06/07 12:07:47;;;;;;;8.10;5.77;;;26.00;53.10;;;;;;5047203;28;20435;-87
2022/06/07 12:10:19;;;;;;;11.00;6.17;;;26.10;53.20;;;;;;5063108;28;20469;-87
2022/06/07 12:12:56;;;;;;;16.90;6.97;;;26.10;53.20;;;;;;5046386;28;20423;-87
2022/06/07 12:15:41;;;;;;;10.80;7.57;;;26.00;53.10;;;;;;5030949;28;20411;-87
2022/06/07 12:18:23;;;;;;;15.70;8.20;;;26.10;53.20;;;;;;5029325;28;20422;-87
2022/06/07 12:21:16;;;;;;;11.90;7.77;;;26.10;53.20;;;;;;5030168;28;20470;-87
2022/06/07 12:23:46;;;;;;;14.50;9.17;;;26.10;53.20;;;;;;5027228;28;20429;-87
2022/06/07 12:26:26;;;;;;;17.40;9.30;;;26.10;53.30;;;;;;5045466;28;20419;-87
2022/06/07 12:28:56;;;;;;;15.23;9.07;;;26.10;53.30;;;;;;5046233;28;20434;-88
2022/06/07 12:31:27;;;;;;;16.77;8.87;;;26.10;53.30;;;;;;5030269;28;20434;-88
2022/06/07 12:33:55;;;;;;;12.47;8.77;;;26.10;53.30;;;;;;5045783;28;20429;-87
2022/06/07 12:36:28;;;;;;;15.10;9.10;;;26.10;53.30;;;;;;5029757;28;20487;-87
2022/06/07 12:39:00;;;;;;;18.77;9.70;;;26.10;53.30;;;;;;5030062;28;20415;-87
2022/06/07 12:41:27;;;;;;;14.90;9.37;;;26.10;53.30;;;;;;5030532;28;20462;-87
2022/06/07 12:43:59;;;;;;;20.40;10.77;;;26.10;53.30;;;;;;5029602;28;20426;-87
2022/06/07 12:46:27;;;;;;;10.87;7.97;;;26.10;53.30;;;;;;5030322;28;20411;-87
2022/06/07 12:48:56;;;;;;;14.37;8.63;;;26.10;53.30;;;;;;5030735;28;20457;-88
2022/06/07 12:51:28;;;;;;;11.63;8.37;;;26.10;53.30;;;;;;5036553;28;20427;-89
2022/06/07 12:54:06;;;;;;;15.27;11.13;;;26.10;53.30;;;;;;5026645;28;20479;-88
2022/06/07 12:56:35;;;;;;;14.73;10.23;;;26.10;53.30;;;;;;5041053;28;20466;-87
2022/06/07 12:59:11;;;;;;;18.03;9.00;;;26.10;53.30;;;;;;5028514;28;20411;-88
2022/06/07 13:01:41;;;;;;;14.40;10.27;;;26.10;53.30;;;;;;5025354;28;20454;-89
2022/06/07 13:04:30;;;;;;;17.37;9.90;;;26.10;53.30;;;;;;5020588;28;20424;-88
2022/06/07 13:07:24;;;;;;;18.00;9.00;;;26.10;53.30;;;;;;5025295;28;20423;-88
2022/06/07 13:10:01;;;;;;;17.60;9.10;;;26.10;53.30;;;;;;5027586;28;20759;-88
2022/06/07 13:12:30;;;;;;;14.53;10.93;;;26.10;53.30;;;;;;5024453;28;20418;-86
2022/06/07 13:14:57;;;;;;;13.33;9.20;;;26.10;53.30;;;;;;5030367;28;20455;-87
2022/06/07 13:17:31;;;;;;;14.00;7.20;;;26.10;53.30;;;;;;5023799;28;20466;-87
2022/06/07 13:19:57;;;;;;;12.70;7.80;;;26.00;53.20;;;;;;5051439;28;20818;-86
2022/06/07 13:22:25;;;;;;;13.27;7.70;;;26.10;53.20;;;;;;5029540;28;20436;-87
2022/06/07 13:24:54;;;;;;;13.63;7.43;;;26.10;53.10;;;;;;5018175;28;20423;-88
2022/06/07 13:27:43;;;;;;;12.93;8.00;;;26.10;53.10;;;;;;5026115;28;20454;-90
2022/06/07 13:30:33;;;;;;;12.53;8.20;;;26.10;53.10;;;;;;5024250;28;20397;-88
2022/06/07 13:33:25;;;;;;;11.63;6.30;;;26.10;53.00;;;;;;5023993;28;20474;-88
2022/06/07 13:35:58;;;;;;;9.00;5.80;;;26.00;53.00;;;;;;5039733;28;20504;-88
2022/06/07 13:38:24;;;;;;;9.37;6.60;;;26.00;53.00;;;;;;5025265;28;20400;-88
2022/06/07 13:41:11;;;;;;;11.07;6.43;;;26.00;53.00;;;;;;5014023;28;20453;-88